createdAt,value
2022-12-01T04:10:35.453Z,91.46
2022-12-01T04:13:37.966Z,92.41
2022-12-01T04:16:40.090Z,91.27
2022-12-01T04:19:42.423Z,91.46
2022-12-01T04:22:44.780Z,90.81
2022-12-01T04:25:47.139Z,90.98
2022-12-01T04:28:49.229Z,89.69
2022-12-01T04:31:51.625Z,89.71
2022-12-01T04:34:53.736Z,89.99
2022-12-01T04:37:56.111Z,90.51
2022-12-01T04:40:58.513Z,90.56
2022-12-01T04:44:00.839Z,90.78
2022-12-01T04:47:04.596Z,90.96
2022-12-01T04:50:07.358Z,90.94
2022-12-01T04:53:09.429Z,90.67
2022-12-01T04:56:11.803Z,91.25
2022-12-01T04:59:13.942Z,90.68
2022-12-01T05:02:17.418Z,90.08
2022-12-01T05:05:20.171Z,89.84
2022-12-01T05:08:22.570Z,89.91
2022-12-01T05:11:25.916Z,91.08
2022-12-01T05:14:28.285Z,91.48
2022-12-01T05:17:36.804Z,92.47
2022-12-01T05:20:57.753Z,92.56
2022-12-01T05:23:59.812Z,92.59
2022-12-01T05:27:02.148Z,92.85
2022-12-01T05:30:05.021Z,93.47
2022-12-01T05:33:07.437Z,94.43
2022-12-01T05:36:09.639Z,94.41
2022-12-01T05:39:12.024Z,93.53
2022-12-01T05:42:14.128Z,93.72
2022-12-01T05:45:16.516Z,94.08
2022-12-01T05:48:18.649Z,94.31
2022-12-01T05:51:21.090Z,94.30
2022-12-01T05:54:23.303Z,94.66
2022-12-01T05:57:26.001Z,95.08
2022-12-01T06:00:28.286Z,94.93
2022-12-01T06:03:30.706Z,94.73
2022-12-01T06:06:32.799Z,95.42
2022-12-01T06:09:35.112Z,96.24
2022-12-01T06:12:38.027Z,96.18
2022-12-01T06:15:40.442Z,96.43
2022-12-01T06:18:42.504Z,96.36
2022-12-01T06:21:44.823Z,96.42
2022-12-01T06:24:46.885Z,96.92
2022-12-01T06:27:49.216Z,96.90
2022-12-01T06:30:51.355Z,96.97
2022-12-01T06:33:53.723Z,97.52
2022-12-01T06:36:55.805Z,97.65
2022-12-01T06:39:58.179Z,97.73
2022-12-01T06:43:02.613Z,97.35
2022-12-01T06:46:06.058Z,96.77
2022-12-01T06:49:12.102Z,96.50
2022-12-01T06:52:14.720Z,96.83
2022-12-01T06:55:16.824Z,96.42
2022-12-01T06:58:19.228Z,95.60
2022-12-01T07:01:22.156Z,95.80
2022-12-01T07:04:24.597Z,96.26
2022-12-01T07:07:26.886Z,96.65
2022-12-01T07:10:29.415Z,96.81
2022-12-01T07:13:33.968Z,97.20
2022-12-01T07:16:36.616Z,96.33
2022-12-01T07:19:41.573Z,95.95
2022-12-01T07:22:45.166Z,96.42
2022-12-01T07:25:47.253Z,96.39
2022-12-01T07:28:49.610Z,95.93
2022-12-01T07:31:51.689Z,95.21
2022-12-01T07:34:54.041Z,94.28
2022-12-01T07:37:56.756Z,94.56
2022-12-01T07:41:14.259Z,93.63
2022-12-01T07:44:16.275Z,92.75
2022-12-01T07:47:18.718Z,92.77
2022-12-01T07:50:21.147Z,92.61
2022-12-01T07:53:24.014Z,90.46
2022-12-01T07:56:26.110Z,89.18
2022-12-01T07:59:28.485Z,88.39
2022-12-01T08:02:30.648Z,87.85
2022-12-01T08:05:33.241Z,86.43
2022-12-01T08:08:37.675Z,84.68
2022-12-01T08:11:40.115Z,82.03
2022-12-01T08:14:42.650Z,79.21
2022-12-01T08:17:44.951Z,77.61
2022-12-01T08:20:47.175Z,76.30
2022-12-01T08:23:56.547Z,76.50
2022-12-01T08:26:58.670Z,75.90
2022-12-01T08:30:01.840Z,74.72
2022-12-01T08:33:04.231Z,75.52
2022-12-01T08:36:08.136Z,75.91
2022-12-01T08:39:10.812Z,75.99
2022-12-01T08:42:13.444Z,75.09
2022-12-01T08:45:15.557Z,75.63
2022-12-01T08:48:17.985Z,75.31
2022-12-01T08:51:20.119Z,74.80
2022-12-01T08:54:22.844Z,73.00
2022-12-01T08:57:25.136Z,71.94
2022-12-01T09:00:27.653Z,71.85
2022-12-01T09:03:31.088Z,71.41
2022-12-01T09:06:39.493Z,70.06
2022-12-01T09:09:42.085Z,67.95
2022-12-01T09:12:44.473Z,62.71
2022-12-01T09:15:55.264Z,59.92
2022-12-01T09:18:57.636Z,55.14
2022-12-01T09:21:59.876Z,50.90
2022-12-01T09:25:02.280Z,50.45
2022-12-01T09:28:04.635Z,51.52
2022-12-01T09:31:10.415Z,51.59
2022-12-01T09:34:18.656Z,51.30
2022-12-01T09:37:21.020Z,51.67
2022-12-01T09:40:30.248Z,51.46
2022-12-01T09:43:41.548Z,50.56
2022-12-01T09:46:49.363Z,50.46
2022-12-01T09:49:57.916Z,50.23
2022-12-01T09:53:02.157Z,50.37
2022-12-01T09:56:11.551Z,51.81
2022-12-01T09:59:23.607Z,50.63
2022-12-01T10:02:33.681Z,51.71
2022-12-01T10:06:25.000Z,53.59
2022-12-01T10:09:16.491Z,53.28
2022-12-01T10:12:23.663Z,54.02
2022-12-01T10:15:49.101Z,55.40
2022-12-01T10:19:08.700Z,53.95
2022-12-01T10:22:16.659Z,53.45
2022-12-01T10:25:25.545Z,53.89
2022-12-01T10:28:36.133Z,54.77
2022-12-01T10:31:53.391Z,53.20
2022-12-01T10:34:55.460Z,50.65
2022-12-01T10:38:01.528Z,48.80
2022-12-01T10:41:06.833Z,45.66
2022-12-01T10:44:09.533Z,44.85
2022-12-01T10:47:25.537Z,44.61
2022-12-01T10:50:28.333Z,43.31
2022-12-01T10:53:33.670Z,42.90
2022-12-01T10:56:40.524Z,41.14
2022-12-01T10:59:51.324Z,40.76
2022-12-01T11:02:54.799Z,39.05
2022-12-01T11:05:59.143Z,37.72
2022-12-01T11:09:24.377Z,31.52
2022-12-01T11:12:28.671Z,33.73
2022-12-01T11:15:40.032Z,37.94
2022-12-01T11:18:42.170Z,39.92
2022-12-01T11:21:53.383Z,41.28
2022-12-01T11:24:56.083Z,41.05
2022-12-01T11:28:01.806Z,38.35
2022-12-01T11:31:07.565Z,33.10
2022-12-01T11:34:22.189Z,31.03
2022-12-01T11:37:32.755Z,28.38
2022-12-01T11:40:48.428Z,23.36
2022-12-01T11:44:00.747Z,19.84
2022-12-01T11:47:24.421Z,18.30
2022-12-01T11:50:31.248Z,16.87
2022-12-01T11:53:39.309Z,19.64
2022-12-01T11:56:43.137Z,21.85
2022-12-01T11:59:45.597Z,29.04
2022-12-01T12:03:19.172Z,35.22
2022-12-01T12:06:40.898Z,41.07
2022-12-01T12:09:56.205Z,45.18
2022-12-01T12:13:16.987Z,48.16
2022-12-01T12:16:53.293Z,49.25
2022-12-01T12:20:29.897Z,49.62
2022-12-01T12:23:51.936Z,50.84
2022-12-01T12:27:09.932Z,52.44
2022-12-01T12:30:23.840Z,54.15
2022-12-01T12:34:02.793Z,53.42
2022-12-01T12:37:20.204Z,53.99
2022-12-01T12:40:53.529Z,53.85
2022-12-01T12:44:16.805Z,54.16
2022-12-01T12:47:48.224Z,55.19
2022-12-01T12:51:05.287Z,56.61
2022-12-01T12:54:20.871Z,55.77
2022-12-01T12:57:32.555Z,56.06
2022-12-01T13:00:36.649Z,57.72
2022-12-01T13:04:00.665Z,57.97
2022-12-01T13:07:17.651Z,58.71
2022-12-01T13:10:29.153Z,57.32
2022-12-01T13:13:54.109Z,59.45
2022-12-01T13:17:02.843Z,60.28
2022-12-01T13:20:06.582Z,59.18
2022-12-01T13:23:16.615Z,59.21
2022-12-01T13:26:21.235Z,58.71
2022-12-01T13:29:25.458Z,61.35
2022-12-01T13:32:40.213Z,61.53
2022-12-01T13:35:42.269Z,60.60
2022-12-01T13:39:02.557Z,60.84
2022-12-01T13:42:19.143Z,62.03
2022-12-01T13:45:23.055Z,60.55
2022-12-01T13:48:49.938Z,61.30
2022-12-01T13:52:23.260Z,61.43
2022-12-01T13:55:28.714Z,61.21
2022-12-01T13:58:34.056Z,63.55
2022-12-01T14:01:44.518Z,64.70
2022-12-01T14:04:47.932Z,64.09
2022-12-01T14:07:52.118Z,66.30
2022-12-01T14:11:01.704Z,66.22
2022-12-01T14:14:26.232Z,66.77
2022-12-01T14:17:32.525Z,64.03
2022-12-01T14:20:43.442Z,65.06
2022-12-01T14:23:57.038Z,65.43
2022-12-01T14:26:59.472Z,66.54
2022-12-01T14:30:43.009Z,66.15
2022-12-01T14:33:54.328Z,64.81
2022-12-01T14:37:16.717Z,66.32
2022-12-01T14:40:24.137Z,67.46
2022-12-01T14:43:47.177Z,67.64
2022-12-01T14:46:59.552Z,68.79
2022-12-01T14:50:12.205Z,70.07
2022-12-01T14:53:21.537Z,71.23
2022-12-01T14:56:25.615Z,71.34
2022-12-01T14:59:27.744Z,72.32
2022-12-01T15:02:30.599Z,72.77
2022-12-01T15:05:39.117Z,72.52
2022-12-01T15:08:49.259Z,71.98
2022-12-01T15:12:01.585Z,72.98
2022-12-01T15:15:22.406Z,73.28
2022-12-01T15:18:36.838Z,72.92
2022-12-01T15:21:39.186Z,73.20
2022-12-01T15:24:42.041Z,72.97
2022-12-01T15:27:44.662Z,71.23
2022-12-01T15:30:52.972Z,73.49
2022-12-01T15:33:56.239Z,73.83
2022-12-01T15:37:00.383Z,73.95
2022-12-01T15:43:38.128Z,73.62
2022-12-01T15:46:40.700Z,73.91
2022-12-01T15:49:48.880Z,73.76
2022-12-01T15:52:51.211Z,73.13
2022-12-01T15:55:59.051Z,73.27
2022-12-01T15:59:31.139Z,74.21
2022-12-01T16:02:33.556Z,74.26
2022-12-01T16:05:36.365Z,73.84
2022-12-01T16:08:38.844Z,74.26
2022-12-01T16:12:16.231Z,74.60
2022-12-01T16:15:22.285Z,74.95
2022-12-01T16:18:33.645Z,75.60
2022-12-01T16:21:55.255Z,76.26
